sensor_id;sensor_type;location;lat;lon;timestamp;P1;durP1;ratioP1;P2;durP2;ratioP2
76447;SDS011;65284;51.040;13.722;2023-09-19T00:00:43;5.07;;;2.40;;
76447;SDS011;65284;51.040;13.722;2023-09-19T00:03:10;5.47;;;2.20;;
76447;SDS011;65284;51.040;13.722;2023-09-19T00:05:38;4.25;;;1.90;;
76447;SDS011;65284;51.040;13.722;2023-09-19T00:08:05;5.65;;;2.30;;
76447;SDS011;65284;51.040;13.722;2023-09-19T00:10:32;6.03;;;2.50;;
76447;SDS011;65284;51.040;13.722;2023-09-19T00:13:03;5.28;;;2.50;;
76447;SDS011;65284;51.040;13.722;2023-09-19T00:15:37;5.45;;;2.40;;
76447;SDS011;65284;51.040;13.722;2023-09-19T00:18:05;5.97;;;2.42;;
76447;SDS011;65284;51.040;13.722;2023-09-19T00:20:36;5.05;;;2.50;;
76447;SDS011;65284;51.040;13.722;2023-09-19T00:23:04;5.03;;;2.30;;
76447;SDS011;65284;51.040;13.722;2023-09-19T00:25:35;5.28;;;2.38;;
76447;SDS011;65284;51.040;13.722;2023-09-19T00:28:04;4.97;;;2.10;;
76447;SDS011;65284;51.040;13.722;2023-09-19T00:33:02;5.40;;;2.33;;
76447;SDS011;65284;51.040;13.722;2023-09-19T00:35:32;5.03;;;2.30;;
76447;SDS011;65284;51.040;13.722;2023-09-19T00:37:59;7.20;;;2.70;;
76447;SDS011;65284;51.040;13.722;2023-09-19T00:40:26;7.60;;;3.00;;
76447;SDS011;65284;51.040;13.722;2023-09-19T00:42:52;6.55;;;2.67;;
76447;SDS011;65284;51.040;13.722;2023-09-19T00:45:26;5.03;;;2.50;;
76447;SDS011;65284;51.040;13.722;2023-09-19T00:47:54;4.82;;;2.45;;
76447;SDS011;65284;51.040;13.722;2023-09-19T00:50:22;7.57;;;2.63;;
76447;SDS011;65284;51.040;13.722;2023-09-19T00:55:19;7.82;;;2.90;;
76447;SDS011;65284;51.040;13.722;2023-09-19T00:57:46;8.02;;;3.10;;
76447;SDS011;65284;51.040;13.722;2023-09-19T01:00:16;7.13;;;2.95;;
76447;SDS011;65284;51.040;13.722;2023-09-19T01:02:45;6.32;;;2.70;;
76447;SDS011;65284;51.040;13.722;2023-09-19T01:05:13;5.88;;;2.75;;
76447;SDS011;65284;51.040;13.722;2023-09-19T01:07:40;4.50;;;2.47;;
76447;SDS011;65284;51.040;13.722;2023-09-19T01:10:08;5.25;;;3.00;;
76447;SDS011;65284;51.040;13.722;2023-09-19T01:12:43;8.82;;;3.00;;
76447;SDS011;65284;51.040;13.722;2023-09-19T01:26:27;8.73;;;3.53;;
76447;SDS011;65284;51.040;13.722;2023-09-19T01:32:01;7.75;;;3.80;;
76447;SDS011;65284;51.040;13.722;2023-09-19T01:34:50;7.68;;;4.30;;
76447;SDS011;65284;51.040;13.722;2023-09-19T01:37:20;8.77;;;4.80;;
76447;SDS011;65284;51.040;13.722;2023-09-19T01:39:52;8.90;;;4.38;;
76447;SDS011;65284;51.040;13.722;2023-09-19T01:45:08;8.52;;;4.53;;
76447;SDS011;65284;51.040;13.722;2023-09-19T01:47:41;9.07;;;5.10;;
76447;SDS011;65284;51.040;13.722;2023-09-19T01:50:18;9.18;;;4.95;;
76447;SDS011;65284;51.040;13.722;2023-09-19T01:52:59;9.65;;;4.95;;
76447;SDS011;65284;51.040;13.722;2023-09-19T01:55:30;9.25;;;5.10;;
76447;SDS011;65284;51.040;13.722;2023-09-19T01:58:46;9.57;;;5.47;;
76447;SDS011;65284;51.040;13.722;2023-09-19T02:01:00;8.23;;;5.28;;
76447;SDS011;65284;51.040;13.722;2023-09-19T02:03:27;9.52;;;5.03;;
76447;SDS011;65284;51.040;13.722;2023-09-19T02:05:55;11.25;;;5.70;;
76447;SDS011;65284;51.040;13.722;2023-09-19T02:08:22;10.77;;;5.75;;
76447;SDS011;65284;51.040;13.722;2023-09-19T02:10:52;11.00;;;5.80;;
76447;SDS011;65284;51.040;13.722;2023-09-19T02:13:19;8.90;;;5.30;;
76447;SDS011;65284;51.040;13.722;2023-09-19T02:15:48;9.93;;;5.82;;
76447;SDS011;65284;51.040;13.722;2023-09-19T02:18:14;9.23;;;5.20;;
76447;SDS011;65284;51.040;13.722;2023-09-19T02:20:41;12.98;;;5.65;;
76447;SDS011;65284;51.040;13.722;2023-09-19T02:23:08;10.82;;;5.50;;
76447;SDS011;65284;51.040;13.722;2023-09-19T02:25:35;8.75;;;4.88;;
76447;SDS011;65284;51.040;13.722;2023-09-19T02:28:04;9.15;;;4.60;;
76447;SDS011;65284;51.040;13.722;2023-09-19T02:30:32;8.45;;;4.78;;
76447;SDS011;65284;51.040;13.722;2023-09-19T02:32:59;9.75;;;4.20;;
76447;SDS011;65284;51.040;13.722;2023-09-19T02:37:54;8.18;;;4.25;;
76447;SDS011;65284;51.040;13.722;2023-09-19T02:40:21;8.38;;;4.30;;
76447;SDS011;65284;51.040;13.722;2023-09-19T02:42:48;7.75;;;3.92;;
76447;SDS011;65284;51.040;13.722;2023-09-19T02:45:16;9.55;;;4.70;;
76447;SDS011;65284;51.040;13.722;2023-09-19T02:47:44;7.78;;;4.72;;
76447;SDS011;65284;51.040;13.722;2023-09-19T02:50:11;8.95;;;4.95;;
76447;SDS011;65284;51.040;13.722;2023-09-19T02:52:41;8.95;;;4.93;;
76447;SDS011;65284;51.040;13.722;2023-09-19T02:55:10;9.98;;;5.07;;
76447;SDS011;65284;51.040;13.722;2023-09-19T02:57:38;8.45;;;4.70;;
76447;SDS011;65284;51.040;13.722;2023-09-19T03:00:07;9.93;;;4.82;;
76447;SDS011;65284;51.040;13.722;2023-09-19T03:02:36;6.93;;;3.65;;
76447;SDS011;65284;51.040;13.722;2023-09-19T03:05:04;7.32;;;4.03;;
76447;SDS011;65284;51.040;13.722;2023-09-19T03:07:31;6.57;;;3.92;;
76447;SDS011;65284;51.040;13.722;2023-09-19T03:09:58;7.25;;;3.80;;
76447;SDS011;65284;51.040;13.722;2023-09-19T03:12:24;6.45;;;3.17;;
76447;SDS011;65284;51.040;13.722;2023-09-19T03:14:51;5.90;;;3.10;;
76447;SDS011;65284;51.040;13.722;2023-09-19T03:17:18;6.60;;;3.30;;
76447;SDS011;65284;51.040;13.722;2023-09-19T03:19:46;5.95;;;3.08;;
76447;SDS011;65284;51.040;13.722;2023-09-19T03:22:14;6.15;;;2.45;;
76447;SDS011;65284;51.040;13.722;2023-09-19T03:24:41;6.22;;;2.40;;
76447;SDS011;65284;51.040;13.722;2023-09-19T03:27:09;5.47;;;2.25;;
76447;SDS011;65284;51.040;13.722;2023-09-19T03:29:36;4.65;;;2.30;;
76447;SDS011;65284;51.040;13.722;2023-09-19T03:32:03;4.40;;;2.55;;
76447;SDS011;65284;51.040;13.722;2023-09-19T03:34:30;3.97;;;1.70;;
76447;SDS011;65284;51.040;13.722;2023-09-19T03:36:56;4.40;;;1.20;;
76447;SDS011;65284;51.040;13.722;2023-09-19T03:39:23;3.45;;;1.10;;
76447;SDS011;65284;51.040;13.722;2023-09-19T03:41:49;3.58;;;1.23;;
76447;SDS011;65284;51.040;13.722;2023-09-19T03:44:16;3.15;;;1.23;;
76447;SDS011;65284;51.040;13.722;2023-09-19T03:46:42;4.45;;;1.35;;
76447;SDS011;65284;51.040;13.722;2023-09-19T03:49:09;2.95;;;0.90;;
76447;SDS011;65284;51.040;13.722;2023-09-19T03:51:36;2.38;;;1.00;;
76447;SDS011;65284;51.040;13.722;2023-09-19T03:54:03;3.63;;;1.08;;
76447;SDS011;65284;51.040;13.722;2023-09-19T03:56:30;5.13;;;1.88;;
76447;SDS011;65284;51.040;13.722;2023-09-19T03:58:57;3.63;;;1.08;;
76447;SDS011;65284;51.040;13.722;2023-09-19T04:01:23;2.90;;;1.00;;
76447;SDS011;65284;51.040;13.722;2023-09-19T04:03:50;2.97;;;1.02;;
76447;SDS011;65284;51.040;13.722;2023-09-19T04:08:46;4.53;;;0.90;;
76447;SDS011;65284;51.040;13.722;2023-09-19T04:11:13;4.25;;;1.02;;
76447;SDS011;65284;51.040;13.722;2023-09-19T04:13:40;1.98;;;0.80;;
76447;SDS011;65284;51.040;13.722;2023-09-19T04:16:07;3.38;;;0.90;;
76447;SDS011;65284;51.040;13.722;2023-09-19T04:18:33;1.63;;;0.70;;
76447;SDS011;65284;51.040;13.722;2023-09-19T04:21:03;2.92;;;1.13;;
76447;SDS011;65284;51.040;13.722;2023-09-19T04:23:30;2.35;;;1.10;;
76447;SDS011;65284;51.040;13.722;2023-09-19T04:25:57;3.47;;;1.00;;
76447;SDS011;65284;51.040;13.722;2023-09-19T04:28:25;1.92;;;0.90;;
76447;SDS011;65284;51.040;13.722;2023-09-19T04:30:54;2.50;;;0.80;;
76447;SDS011;65284;51.040;13.722;2023-09-19T04:33:21;3.33;;;0.88;;
76447;SDS011;65284;51.040;13.722;2023-09-19T04:35:49;3.85;;;1.10;;
76447;SDS011;65284;51.040;13.722;2023-09-19T04:38:17;2.38;;;0.88;;
76447;SDS011;65284;51.040;13.722;2023-09-19T04:40:45;2.08;;;0.90;;
76447;SDS011;65284;51.040;13.722;2023-09-19T04:43:12;2.63;;;0.90;;
76447;SDS011;65284;51.040;13.722;2023-09-19T04:45:39;4.22;;;0.82;;
76447;SDS011;65284;51.040;13.722;2023-09-19T04:48:06;3.33;;;1.02;;
76447;SDS011;65284;51.040;13.722;2023-09-19T04:50:33;2.78;;;1.00;;
76447;SDS011;65284;51.040;13.722;2023-09-19T04:53:00;3.55;;;1.10;;
76447;SDS011;65284;51.040;13.722;2023-09-19T04:55:27;2.78;;;1.10;;
76447;SDS011;65284;51.040;13.722;2023-09-19T04:57:53;4.00;;;0.90;;
76447;SDS011;65284;51.040;13.722;2023-09-19T05:00:22;2.45;;;1.08;;
76447;SDS011;65284;51.040;13.722;2023-09-19T05:02:55;2.17;;;0.90;;
76447;SDS011;65284;51.040;13.722;2023-09-19T05:05:25;1.60;;;0.90;;
76447;SDS011;65284;51.040;13.722;2023-09-19T05:07:52;3.38;;;1.10;;
76447;SDS011;65284;51.040;13.722;2023-09-19T05:10:22;2.75;;;0.90;;
76447;SDS011;65284;51.040;13.722;2023-09-19T05:12:49;3.38;;;0.90;;
76447;SDS011;65284;51.040;13.722;2023-09-19T05:15:19;4.55;;;1.10;;
76447;SDS011;65284;51.040;13.722;2023-09-19T05:17:49;1.50;;;0.80;;
76447;SDS011;65284;51.040;13.722;2023-09-19T05:20:22;2.88;;;1.00;;
76447;SDS011;65284;51.040;13.722;2023-09-19T05:23:04;3.10;;;1.00;;
76447;SDS011;65284;51.040;13.722;2023-09-19T05:25:35;3.50;;;1.00;;
76447;SDS011;65284;51.040;13.722;2023-09-19T05:28:03;3.80;;;1.08;;
76447;SDS011;65284;51.040;13.722;2023-09-19T05:30:32;3.97;;;0.80;;
76447;SDS011;65284;51.040;13.722;2023-09-19T05:32:59;2.05;;;0.90;;
76447;SDS011;65284;51.040;13.722;2023-09-19T05:35:26;4.00;;;1.25;;
76447;SDS011;65284;51.040;13.722;2023-09-19T05:37:53;4.38;;;0.88;;
76447;SDS011;65284;51.040;13.722;2023-09-19T05:40:21;1.50;;;0.80;;
76447;SDS011;65284;51.040;13.722;2023-09-19T05:42:48;2.72;;;0.80;;
76447;SDS011;65284;51.040;13.722;2023-09-19T05:45:17;2.17;;;1.00;;
76447;SDS011;65284;51.040;13.722;2023-09-19T05:47:50;1.98;;;0.98;;
76447;SDS011;65284;51.040;13.722;2023-09-19T05:50:17;1.98;;;0.82;;
76447;SDS011;65284;51.040;13.722;2023-09-19T05:52:51;3.65;;;1.02;;
76447;SDS011;65284;51.040;13.722;2023-09-19T05:55:19;4.30;;;1.20;;
76447;SDS011;65284;51.040;13.722;2023-09-19T05:57:53;2.70;;;1.25;;
76447;SDS011;65284;51.040;13.722;2023-09-19T06:00:20;2.35;;;0.90;;
76447;SDS011;65284;51.040;13.722;2023-09-19T06:02:55;1.92;;;0.90;;
76447;SDS011;65284;51.040;13.722;2023-09-19T06:05:24;2.95;;;1.00;;
76447;SDS011;65284;51.040;13.722;2023-09-19T06:07:53;2.60;;;1.08;;
76447;SDS011;65284;51.040;13.722;2023-09-19T06:10:20;4.35;;;1.20;;
76447;SDS011;65284;51.040;13.722;2023-09-19T06:12:47;4.40;;;1.00;;
76447;SDS011;65284;51.040;13.722;2023-09-19T06:15:14;2.65;;;1.10;;
76447;SDS011;65284;51.040;13.722;2023-09-19T06:17:42;4.35;;;1.00;;
76447;SDS011;65284;51.040;13.722;2023-09-19T06:20:12;3.33;;;0.90;;
76447;SDS011;65284;51.040;13.722;2023-09-19T06:22:41;2.08;;;0.90;;
76447;SDS011;65284;51.040;13.722;2023-09-19T06:25:12;2.22;;;0.80;;
76447;SDS011;65284;51.040;13.722;2023-09-19T06:27:47;2.78;;;0.98;;
76447;SDS011;65284;51.040;13.722;2023-09-19T06:30:15;2.90;;;1.20;;
76447;SDS011;65284;51.040;13.722;2023-09-19T06:32:41;2.42;;;1.27;;
76447;SDS011;65284;51.040;13.722;2023-09-19T06:35:11;2.67;;;1.00;;
76447;SDS011;65284;51.040;13.722;2023-09-19T06:37:39;2.35;;;0.90;;
76447;SDS011;65284;51.040;13.722;2023-09-19T06:40:14;2.63;;;1.10;;
76447;SDS011;65284;51.040;13.722;2023-09-19T06:42:44;3.40;;;1.30;;
76447;SDS011;65284;51.040;13.722;2023-09-19T06:45:12;2.53;;;1.20;;
76447;SDS011;65284;51.040;13.722;2023-09-19T06:47:44;3.30;;;1.08;;
76447;SDS011;65284;51.040;13.722;2023-09-19T06:50:12;2.60;;;1.05;;
76447;SDS011;65284;51.040;13.722;2023-09-19T06:52:41;3.05;;;0.82;;
76447;SDS011;65284;51.040;13.722;2023-09-19T06:55:08;3.13;;;1.10;;
76447;SDS011;65284;51.040;13.722;2023-09-19T06:57:38;5.43;;;1.00;;
76447;SDS011;65284;51.040;13.722;2023-09-19T07:00:05;3.88;;;1.10;;
76447;SDS011;65284;51.040;13.722;2023-09-19T07:02:42;2.30;;;1.00;;
76447;SDS011;65284;51.040;13.722;2023-09-19T07:05:09;3.25;;;0.90;;
76447;SDS011;65284;51.040;13.722;2023-09-19T07:07:36;3.10;;;1.00;;
76447;SDS011;65284;51.040;13.722;2023-09-19T07:10:03;2.20;;;1.10;;
76447;SDS011;65284;51.040;13.722;2023-09-19T07:12:31;3.20;;;0.80;;
76447;SDS011;65284;51.040;13.722;2023-09-19T07:14:59;3.08;;;1.00;;
76447;SDS011;65284;51.040;13.722;2023-09-19T07:17:25;2.47;;;0.80;;
76447;SDS011;65284;51.040;13.722;2023-09-19T07:19:52;2.20;;;0.82;;
76447;SDS011;65284;51.040;13.722;2023-09-19T07:22:18;2.80;;;0.80;;
76447;SDS011;65284;51.040;13.722;2023-09-19T07:24:45;2.30;;;0.80;;
76447;SDS011;65284;51.040;13.722;2023-09-19T07:27:13;1.80;;;0.70;;
76447;SDS011;65284;51.040;13.722;2023-09-19T07:29:39;2.00;;;0.70;;
76447;SDS011;65284;51.040;13.722;2023-09-19T07:32:06;2.33;;;0.80;;
76447;SDS011;65284;51.040;13.722;2023-09-19T07:34:33;1.90;;;0.90;;
76447;SDS011;65284;51.040;13.722;2023-09-19T07:37:00;2.95;;;0.85;;
76447;SDS011;65284;51.040;13.722;2023-09-19T07:39:26;2.25;;;0.80;;
76447;SDS011;65284;51.040;13.722;2023-09-19T07:41:52;2.55;;;0.80;;
76447;SDS011;65284;51.040;13.722;2023-09-19T07:44:20;2.38;;;0.80;;
76447;SDS011;65284;51.040;13.722;2023-09-19T07:46:47;3.67;;;0.93;;
76447;SDS011;65284;51.040;13.722;2023-09-19T07:49:17;3.40;;;0.80;;
76447;SDS011;65284;51.040;13.722;2023-09-19T07:51:44;3.22;;;0.80;;
76447;SDS011;65284;51.040;13.722;2023-09-19T07:54:13;3.00;;;0.80;;
76447;SDS011;65284;51.040;13.722;2023-09-19T07:56:40;2.65;;;0.63;;
76447;SDS011;65284;51.040;13.722;2023-09-19T07:59:07;1.65;;;0.52;;
76447;SDS011;65284;51.040;13.722;2023-09-19T08:01:34;2.30;;;0.70;;
76447;SDS011;65284;51.040;13.722;2023-09-19T08:04:01;1.48;;;0.55;;
76447;SDS011;65284;51.040;13.722;2023-09-19T08:06:28;2.10;;;0.60;;
76447;SDS011;65284;51.040;13.722;2023-09-19T08:08:56;1.90;;;0.70;;
76447;SDS011;65284;51.040;13.722;2023-09-19T08:11:23;3.10;;;0.80;;
76447;SDS011;65284;51.040;13.722;2023-09-19T08:13:50;2.53;;;0.75;;
76447;SDS011;65284;51.040;13.722;2023-09-19T08:16:17;2.53;;;0.77;;
76447;SDS011;65284;51.040;13.722;2023-09-19T08:18:49;1.38;;;0.70;;
76447;SDS011;65284;51.040;13.722;2023-09-19T08:21:22;1.95;;;0.60;;
76447;SDS011;65284;51.040;13.722;2023-09-19T08:23:50;1.77;;;0.70;;
76447;SDS011;65284;51.040;13.722;2023-09-19T08:26:16;2.38;;;0.55;;
76447;SDS011;65284;51.040;13.722;2023-09-19T08:28:43;2.53;;;0.70;;
76447;SDS011;65284;51.040;13.722;2023-09-19T08:31:10;2.20;;;0.70;;
76447;SDS011;65284;51.040;13.722;2023-09-19T08:33:36;1.45;;;0.52;;
76447;SDS011;65284;51.040;13.722;2023-09-19T08:36:06;2.53;;;0.80;;
76447;SDS011;65284;51.040;13.722;2023-09-19T08:38:33;2.90;;;0.75;;
76447;SDS011;65284;51.040;13.722;2023-09-19T08:41:04;2.42;;;0.70;;
76447;SDS011;65284;51.040;13.722;2023-09-19T08:43:34;2.35;;;0.60;;
76447;SDS011;65284;51.040;13.722;2023-09-19T08:46:11;5.28;;;0.88;;
76447;SDS011;65284;51.040;13.722;2023-09-19T08:51:35;4.68;;;0.77;;
76447;SDS011;65284;51.040;13.722;2023-09-19T08:54:08;2.08;;;0.70;;
76447;SDS011;65284;51.040;13.722;2023-09-19T08:56:39;4.15;;;0.77;;
76447;SDS011;65284;51.040;13.722;2023-09-19T08:59:08;1.95;;;0.70;;
76447;SDS011;65284;51.040;13.722;2023-09-19T09:01:36;2.95;;;0.70;;
76447;SDS011;65284;51.040;13.722;2023-09-19T09:04:04;4.20;;;0.80;;
76447;SDS011;65284;51.040;13.722;2023-09-19T09:06:35;2.90;;;0.80;;
76447;SDS011;65284;51.040;13.722;2023-09-19T09:09:02;1.88;;;0.75;;
76447;SDS011;65284;51.040;13.722;2023-09-19T09:11:29;3.25;;;0.90;;
76447;SDS011;65284;51.040;13.722;2023-09-19T09:13:59;3.92;;;0.80;;
76447;SDS011;65284;51.040;13.722;2023-09-19T09:16:26;1.63;;;0.60;;
76447;SDS011;65284;51.040;13.722;2023-09-19T09:18:53;2.53;;;0.68;;
76447;SDS011;65284;51.040;13.722;2023-09-19T09:21:21;1.58;;;0.60;;
76447;SDS011;65284;51.040;13.722;2023-09-19T09:23:51;3.40;;;0.70;;
76447;SDS011;65284;51.040;13.722;2023-09-19T09:29:03;3.00;;;0.68;;
76447;SDS011;65284;51.040;13.722;2023-09-19T09:31:30;2.22;;;0.70;;
76447;SDS011;65284;51.040;13.722;2023-09-19T09:33:58;2.95;;;0.70;;
76447;SDS011;65284;51.040;13.722;2023-09-19T09:36:37;1.70;;;0.68;;
76447;SDS011;65284;51.040;13.722;2023-09-19T09:39:06;2.67;;;0.70;;
76447;SDS011;65284;51.040;13.722;2023-09-19T09:41:44;2.40;;;0.63;;
76447;SDS011;65284;51.040;13.722;2023-09-19T09:44:15;2.13;;;0.70;;
76447;SDS011;65284;51.040;13.722;2023-09-19T09:46:45;3.45;;;0.80;;
76447;SDS011;65284;51.040;13.722;2023-09-19T09:49:24;3.08;;;1.00;;
76447;SDS011;65284;51.040;13.722;2023-09-19T09:52:01;4.15;;;0.98;;
76447;SDS011;65284;51.040;13.722;2023-09-19T09:54:37;2.90;;;0.70;;
76447;SDS011;65284;51.040;13.722;2023-09-19T09:59:47;2.67;;;0.80;;
76447;SDS011;65284;51.040;13.722;2023-09-19T10:02:20;3.92;;;0.90;;
76447;SDS011;65284;51.040;13.722;2023-09-19T10:04:51;1.98;;;0.73;;
76447;SDS011;65284;51.040;13.722;2023-09-19T10:07:29;2.63;;;0.85;;
76447;SDS011;65284;51.040;13.722;2023-09-19T10:10:03;2.55;;;0.70;;
76447;SDS011;65284;51.040;13.722;2023-09-19T10:12:38;4.25;;;0.77;;
76447;SDS011;65284;51.040;13.722;2023-09-19T10:15:08;4.38;;;1.20;;
76447;SDS011;65284;51.040;13.722;2023-09-19T10:17:37;2.22;;;0.70;;
76447;SDS011;65284;51.040;13.722;2023-09-19T10:20:06;2.58;;;0.80;;
76447;SDS011;65284;51.040;13.722;2023-09-19T10:22:36;4.15;;;0.95;;
76447;SDS011;65284;51.040;13.722;2023-09-19T10:25:04;2.22;;;0.80;;
76447;SDS011;65284;51.040;13.722;2023-09-19T10:27:33;1.48;;;0.60;;
76447;SDS011;65284;51.040;13.722;2023-09-19T10:30:07;2.70;;;0.77;;
76447;SDS011;65284;51.040;13.722;2023-09-19T10:32:34;3.80;;;0.73;;
76447;SDS011;65284;51.040;13.722;2023-09-19T10:35:02;1.92;;;0.80;;
76447;SDS011;65284;51.040;13.722;2023-09-19T10:39:58;2.58;;;0.75;;
76447;SDS011;65284;51.040;13.722;2023-09-19T10:42:25;2.58;;;0.90;;
76447;SDS011;65284;51.040;13.722;2023-09-19T10:44:55;1.98;;;0.80;;
76447;SDS011;65284;51.040;13.722;2023-09-19T10:47:26;2.45;;;0.50;;
76447;SDS011;65284;51.040;13.722;2023-09-19T10:49:53;2.10;;;0.60;;
76447;SDS011;65284;51.040;13.722;2023-09-19T10:52:22;2.33;;;0.75;;
76447;SDS011;65284;51.040;13.722;2023-09-19T10:54:51;1.33;;;0.70;;
76447;SDS011;65284;51.040;13.722;2023-09-19T10:57:24;1.70;;;0.70;;
76447;SDS011;65284;51.040;13.722;2023-09-19T11:00:03;2.22;;;0.70;;
76447;SDS011;65284;51.040;13.722;2023-09-19T11:06:00;1.77;;;0.80;;
76447;SDS011;65284;51.040;13.722;2023-09-19T11:08:27;2.88;;;0.70;;
76447;SDS011;65284;51.040;13.722;2023-09-19T11:10:53;2.47;;;0.80;;
76447;SDS011;65284;51.040;13.722;2023-09-19T11:13:24;3.67;;;0.70;;
76447;SDS011;65284;51.040;13.722;2023-09-19T11:26:44;6.43;;;0.93;;
76447;SDS011;65284;51.040;13.722;2023-09-19T11:29:24;2.60;;;0.90;;
76447;SDS011;65284;51.040;13.722;2023-09-19T11:31:51;2.92;;;0.90;;
76447;SDS011;65284;51.040;13.722;2023-09-19T11:37:58;2.92;;;1.00;;
76447;SDS011;65284;51.040;13.722;2023-09-19T11:40:05;2.08;;;0.93;;
76447;SDS011;65284;51.040;13.722;2023-09-19T11:48:24;2.42;;;1.00;;
76447;SDS011;65284;51.040;13.722;2023-09-19T11:50:53;3.00;;;1.00;;
76447;SDS011;65284;51.040;13.722;2023-09-19T11:53:21;3.20;;;0.90;;
76447;SDS011;65284;51.040;13.722;2023-09-19T11:55:49;3.15;;;0.90;;
76447;SDS011;65284;51.040;13.722;2023-09-19T11:58:17;3.45;;;0.93;;
76447;SDS011;65284;51.040;13.722;2023-09-19T12:00:44;1.90;;;0.90;;
76447;SDS011;65284;51.040;13.722;2023-09-19T12:03:12;2.22;;;0.80;;
76447;SDS011;65284;51.040;13.722;2023-09-19T12:05:42;2.80;;;0.90;;
76447;SDS011;65284;51.040;13.722;2023-09-19T12:08:09;2.83;;;1.10;;
76447;SDS011;65284;51.040;13.722;2023-09-19T12:10:45;4.20;;;0.90;;
76447;SDS011;65284;51.040;13.722;2023-09-19T12:13:19;2.28;;;1.05;;
76447;SDS011;65284;51.040;13.722;2023-09-19T12:15:47;3.13;;;0.90;;
76447;SDS011;65284;51.040;13.722;2023-09-19T12:18:26;4.30;;;0.90;;
76447;SDS011;65284;51.040;13.722;2023-09-19T12:20:56;3.25;;;0.60;;
76447;SDS011;65284;51.040;13.722;2023-09-19T12:23:24;1.70;;;0.77;;
76447;SDS011;65284;51.040;13.722;2023-09-19T12:25:52;4.55;;;0.70;;
76447;SDS011;65284;51.040;13.722;2023-09-19T12:28:22;2.90;;;0.73;;
76447;SDS011;65284;51.040;13.722;2023-09-19T12:30:54;3.25;;;0.98;;
76447;SDS011;65284;51.040;13.722;2023-09-19T12:33:21;4.82;;;0.73;;
76447;SDS011;65284;51.040;13.722;2023-09-19T12:35:52;2.35;;;0.80;;
76447;SDS011;65284;51.040;13.722;2023-09-19T12:38:26;3.60;;;0.80;;
76447;SDS011;65284;51.040;13.722;2023-09-19T12:41:01;3.65;;;1.63;;
76447;SDS011;65284;51.040;13.722;2023-09-19T12:43:31;6.50;;;2.80;;
76447;SDS011;65284;51.040;13.722;2023-09-19T12:46:03;2.17;;;0.80;;
76447;SDS011;65284;51.040;13.722;2023-09-19T12:48:31;3.60;;;1.00;;
76447;SDS011;65284;51.040;13.722;2023-09-19T12:51:01;3.20;;;0.80;;
76447;SDS011;65284;51.040;13.722;2023-09-19T12:53:43;3.10;;;1.13;;
76447;SDS011;65284;51.040;13.722;2023-09-19T12:56:13;2.42;;;0.85;;
76447;SDS011;65284;51.040;13.722;2023-09-19T13:01:21;3.78;;;0.90;;
76447;SDS011;65284;51.040;13.722;2023-09-19T13:06:42;2.47;;;1.00;;
76447;SDS011;65284;51.040;13.722;2023-09-19T13:09:10;3.88;;;0.75;;
76447;SDS011;65284;51.040;13.722;2023-09-19T13:11:37;5.25;;;1.10;;
76447;SDS011;65284;51.040;13.722;2023-09-19T13:19:34;3.13;;;0.98;;
76447;SDS011;65284;51.040;13.722;2023-09-19T13:22:02;2.97;;;1.00;;
76447;SDS011;65284;51.040;13.722;2023-09-19T13:24:29;2.42;;;1.02;;
76447;SDS011;65284;51.040;13.722;2023-09-19T13:26:56;3.05;;;0.90;;
76447;SDS011;65284;51.040;13.722;2023-09-19T13:29:23;3.10;;;0.80;;
76447;SDS011;65284;51.040;13.722;2023-09-19T13:31:50;2.30;;;0.90;;
76447;SDS011;65284;51.040;13.722;2023-09-19T13:34:21;2.25;;;0.70;;
76447;SDS011;65284;51.040;13.722;2023-09-19T13:36:48;3.10;;;1.10;;
76447;SDS011;65284;51.040;13.722;2023-09-19T13:39:15;3.75;;;0.80;;
76447;SDS011;65284;51.040;13.722;2023-09-19T13:41:46;3.20;;;1.02;;
76447;SDS011;65284;51.040;13.722;2023-09-19T13:44:14;3.28;;;0.98;;
76447;SDS011;65284;51.040;13.722;2023-09-19T13:46:42;2.55;;;0.93;;
76447;SDS011;65284;51.040;13.722;2023-09-19T13:49:12;3.25;;;0.90;;
76447;SDS011;65284;51.040;13.722;2023-09-19T13:51:39;3.67;;;1.10;;
76447;SDS011;65284;51.040;13.722;2023-09-19T13:54:09;2.78;;;0.85;;
76447;SDS011;65284;51.040;13.722;2023-09-19T13:56:38;2.75;;;1.05;;
76447;SDS011;65284;51.040;13.722;2023-09-19T13:59:05;3.35;;;1.20;;
76447;SDS011;65284;51.040;13.722;2023-09-19T14:01:31;2.75;;;1.00;;
76447;SDS011;65284;51.040;13.722;2023-09-19T14:03:58;2.72;;;0.98;;
76447;SDS011;65284;51.040;13.722;2023-09-19T14:06:25;4.28;;;1.00;;
76447;SDS011;65284;51.040;13.722;2023-09-19T14:08:51;3.33;;;0.95;;
76447;SDS011;65284;51.040;13.722;2023-09-19T14:11:18;4.05;;;1.10;;
76447;SDS011;65284;51.040;13.722;2023-09-19T14:13:44;2.25;;;0.90;;
76447;SDS011;65284;51.040;13.722;2023-09-19T14:16:15;2.80;;;0.90;;
76447;SDS011;65284;51.040;13.722;2023-09-19T14:18:44;3.75;;;0.90;;
76447;SDS011;65284;51.040;13.722;2023-09-19T14:23:38;2.78;;;0.90;;
76447;SDS011;65284;51.040;13.722;2023-09-19T14:26:05;2.13;;;0.90;;
76447;SDS011;65284;51.040;13.722;2023-09-19T14:28:32;3.47;;;1.10;;
76447;SDS011;65284;51.040;13.722;2023-09-19T14:31:06;2.70;;;0.93;;
76447;SDS011;65284;51.040;13.722;2023-09-19T14:33:34;2.75;;;1.23;;
76447;SDS011;65284;51.040;13.722;2023-09-19T14:36:07;3.63;;;1.23;;
76447;SDS011;65284;51.040;13.722;2023-09-19T14:38:36;2.38;;;1.23;;
76447;SDS011;65284;51.040;13.722;2023-09-19T14:41:04;2.70;;;1.33;;
76447;SDS011;65284;51.040;13.722;2023-09-19T14:43:32;3.17;;;1.15;;
76447;SDS011;65284;51.040;13.722;2023-09-19T14:46:03;3.30;;;1.30;;
76447;SDS011;65284;51.040;13.722;2023-09-19T14:48:30;3.80;;;1.30;;
76447;SDS011;65284;51.040;13.722;2023-09-19T14:51:01;3.53;;;1.10;;
76447;SDS011;65284;51.040;13.722;2023-09-19T14:53:28;2.85;;;1.38;;
76447;SDS011;65284;51.040;13.722;2023-09-19T14:55:55;4.22;;;1.38;;
76447;SDS011;65284;51.040;13.722;2023-09-19T14:58:22;3.78;;;1.50;;
76447;SDS011;65284;51.040;13.722;2023-09-19T15:00:48;4.55;;;1.30;;
76447;SDS011;65284;51.040;13.722;2023-09-19T15:03:17;3.22;;;1.40;;
76447;SDS011;65284;51.040;13.722;2023-09-19T15:05:44;3.00;;;1.40;;
76447;SDS011;65284;51.040;13.722;2023-09-19T15:08:11;4.55;;;1.50;;
76447;SDS011;65284;51.040;13.722;2023-09-19T15:10:37;3.10;;;1.38;;
76447;SDS011;65284;51.040;13.722;2023-09-19T15:13:04;3.42;;;1.40;;
76447;SDS011;65284;51.040;13.722;2023-09-19T15:15:31;3.55;;;1.25;;
76447;SDS011;65284;51.040;13.722;2023-09-19T15:17:58;4.47;;;1.20;;
76447;SDS011;65284;51.040;13.722;2023-09-19T15:20:25;4.10;;;1.20;;
76447;SDS011;65284;51.040;13.722;2023-09-19T15:22:52;3.33;;;1.30;;
76447;SDS011;65284;51.040;13.722;2023-09-19T15:25:19;4.70;;;1.40;;
76447;SDS011;65284;51.040;13.722;2023-09-19T15:27:45;3.38;;;1.40;;
76447;SDS011;65284;51.040;13.722;2023-09-19T15:30:12;4.78;;;1.30;;
76447;SDS011;65284;51.040;13.722;2023-09-19T15:32:41;3.53;;;1.20;;
76447;SDS011;65284;51.040;13.722;2023-09-19T15:35:08;3.15;;;1.27;;
76447;SDS011;65284;51.040;13.722;2023-09-19T15:37:38;3.33;;;1.23;;
76447;SDS011;65284;51.040;13.722;2023-09-19T15:40:04;4.05;;;1.50;;
76447;SDS011;65284;51.040;13.722;2023-09-19T15:42:34;3.72;;;1.40;;
76447;SDS011;65284;51.040;13.722;2023-09-19T15:45:01;3.25;;;1.30;;
76447;SDS011;65284;51.040;13.722;2023-09-19T15:47:27;3.70;;;1.40;;
76447;SDS011;65284;51.040;13.722;2023-09-19T15:49:55;3.45;;;1.30;;
76447;SDS011;65284;51.040;13.722;2023-09-19T15:52:22;2.50;;;1.10;;
76447;SDS011;65284;51.040;13.722;2023-09-19T15:54:52;4.65;;;1.30;;
76447;SDS011;65284;51.040;13.722;2023-09-19T15:57:18;4.68;;;1.42;;